sensor_id;sensor_type;location;lat;lon;timestamp;temperature;humidity
21582;DHT22;10952;50.836;4.348;2023-04-01T00:00:18;10.80;99.90
21582;DHT22;10952;50.836;4.348;2023-04-01T00:02:44;10.70;99.90
21582;DHT22;10952;50.836;4.348;2023-04-01T00:05:10;10.70;99.90
21582;DHT22;10952;50.836;4.348;2023-04-01T00:07:40;10.80;99.90
21582;DHT22;10952;50.836;4.348;2023-04-01T00:10:07;10.70;99.90
21582;DHT22;10952;50.836;4.348;2023-04-01T00:12:33;10.80;99.90
21582;DHT22;10952;50.836;4.348;2023-04-01T00:14:59;10.70;99.90
21582;DHT22;10952;50.836;4.348;2023-04-01T00:17:25;10.80;99.90
21582;DHT22;10952;50.836;4.348;2023-04-01T00:19:50;10.70;99.90
21582;DHT22;10952;50.836;4.348;2023-04-01T00:22:16;10.80;99.90
21582;DHT22;10952;50.836;4.348;2023-04-01T00:24:42;10.80;99.90
21582;DHT22;10952;50.836;4.348;2023-04-01T00:27:07;10.80;99.90
21582;DHT22;10952;50.836;4.348;2023-04-01T00:29:34;10.80;99.90
21582;DHT22;10952;50.836;4.348;2023-04-01T00:32:00;10.70;99.90
21582;DHT22;10952;50.836;4.348;2023-04-01T00:34:26;10.70;99.90
21582;DHT22;10952;50.836;4.348;2023-04-01T00:36:52;10.70;99.90
21582;DHT22;10952;50.836;4.348;2023-04-01T00:39:19;10.80;99.90
21582;DHT22;10952;50.836;4.348;2023-04-01T00:41:46;10.70;99.90
21582;DHT22;10952;50.836;4.348;2023-04-01T00:44:33;10.60;99.90
21582;DHT22;10952;50.836;4.348;2023-04-01T00:47:00;10.60;99.90
21582;DHT22;10952;50.836;4.348;2023-04-01T00:49:33;10.70;99.90
21582;DHT22;10952;50.836;4.348;2023-04-01T00:52:02;10.70;99.90
21582;DHT22;10952;50.836;4.348;2023-04-01T00:54:29;10.60;99.90
21582;DHT22;10952;50.836;4.348;2023-04-01T00:56:59;10.70;99.90
21582;DHT22;10952;50.836;4.348;2023-04-01T00:59:29;10.70;99.90
21582;DHT22;10952;50.836;4.348;2023-04-01T01:01:56;10.70;99.90
21582;DHT22;10952;50.836;4.348;2023-04-01T01:04:30;10.60;99.90
21582;DHT22;10952;50.836;4.348;2023-04-01T01:12:22;10.60;99.90
21582;DHT22;10952;50.836;4.348;2023-04-01T01:14:55;10.50;99.90
21582;DHT22;10952;50.836;4.348;2023-04-01T01:28:52;10.60;99.90
21582;DHT22;10952;50.836;4.348;2023-04-01T01:34:30;10.60;99.90
21582;DHT22;10952;50.836;4.348;2023-04-01T01:37:01;10.60;99.90
21582;DHT22;10952;50.836;4.348;2023-04-01T01:39:30;10.60;99.90
21582;DHT22;10952;50.836;4.348;2023-04-01T01:41:58;10.60;99.90
21582;DHT22;10952;50.836;4.348;2023-04-01T01:44:28;10.60;99.90
21582;DHT22;10952;50.836;4.348;2023-04-01T01:46:56;10.70;99.90
21582;DHT22;10952;50.836;4.348;2023-04-01T01:49:22;10.70;99.90
21582;DHT22;10952;50.836;4.348;2023-04-01T01:51:48;10.60;99.90
21582;DHT22;10952;50.836;4.348;2023-04-01T01:54:17;10.50;99.90
21582;DHT22;10952;50.836;4.348;2023-04-01T01:56:46;10.40;99.90
21582;DHT22;10952;50.836;4.348;2023-04-01T01:59:15;10.40;99.90
21582;DHT22;10952;50.836;4.348;2023-04-01T02:01:48;10.40;99.90
21582;DHT22;10952;50.836;4.348;2023-04-01T02:04:15;10.40;99.90
21582;DHT22;10952;50.836;4.348;2023-04-01T02:06:47;10.40;99.90
21582;DHT22;10952;50.836;4.348;2023-04-01T02:09:15;10.50;99.90
21582;DHT22;10952;50.836;4.348;2023-04-01T02:12:03;10.50;99.90
21582;DHT22;10952;50.836;4.348;2023-04-01T02:14:46;10.40;99.90
21582;DHT22;10952;50.836;4.348;2023-04-01T02:17:17;10.40;99.90
21582;DHT22;10952;50.836;4.348;2023-04-01T02:19:57;10.30;99.90
21582;DHT22;10952;50.836;4.348;2023-04-01T02:22:32;10.30;99.90
21582;DHT22;10952;50.836;4.348;2023-04-01T02:25:03;10.30;99.90
21582;DHT22;10952;50.836;4.348;2023-04-01T02:27:30;10.30;99.90
21582;DHT22;10952;50.836;4.348;2023-04-01T02:29:56;10.30;99.90
21582;DHT22;10952;50.836;4.348;2023-04-01T02:32:23;10.40;99.90
21582;DHT22;10952;50.836;4.348;2023-04-01T02:34:49;10.30;99.90
21582;DHT22;10952;50.836;4.348;2023-04-01T02:37:16;10.20;99.90
21582;DHT22;10952;50.836;4.348;2023-04-01T02:39:42;10.20;99.90
21582;DHT22;10952;50.836;4.348;2023-04-01T02:42:08;10.20;99.90
21582;DHT22;10952;50.836;4.348;2023-04-01T02:44:34;10.30;99.90
21582;DHT22;10952;50.836;4.348;2023-04-01T02:47:00;10.30;99.90
21582;DHT22;10952;50.836;4.348;2023-04-01T02:49:25;10.30;99.90
21582;DHT22;10952;50.836;4.348;2023-04-01T02:51:51;10.30;99.90
21582;DHT22;10952;50.836;4.348;2023-04-01T02:54:18;10.30;99.90
21582;DHT22;10952;50.836;4.348;2023-04-01T02:56:43;10.20;99.90
21582;DHT22;10952;50.836;4.348;2023-04-01T02:59:09;10.20;99.90
21582;DHT22;10952;50.836;4.348;2023-04-01T03:01:35;10.20;99.90
21582;DHT22;10952;50.836;4.348;2023-04-01T03:04:00;10.20;99.90
21582;DHT22;10952;50.836;4.348;2023-04-01T03:06:26;10.30;99.90
21582;DHT22;10952;50.836;4.348;2023-04-01T03:08:52;10.30;99.90
21582;DHT22;10952;50.836;4.348;2023-04-01T03:11:17;10.30;99.90
21582;DHT22;10952;50.836;4.348;2023-04-01T03:13:43;10.30;99.90
21582;DHT22;10952;50.836;4.348;2023-04-01T03:16:09;10.40;99.90
21582;DHT22;10952;50.836;4.348;2023-04-01T03:18:34;10.30;99.90
21582;DHT22;10952;50.836;4.348;2023-04-01T03:21:32;10.30;99.90
21582;DHT22;10952;50.836;4.348;2023-04-01T03:23:58;10.20;99.90
21582;DHT22;10952;50.836;4.348;2023-04-01T03:26:24;10.20;99.90
21582;DHT22;10952;50.836;4.348;2023-04-01T03:28:52;10.20;99.90
21582;DHT22;10952;50.836;4.348;2023-04-01T03:31:18;10.10;99.90
21582;DHT22;10952;50.836;4.348;2023-04-01T03:33:43;10.20;99.90
21582;DHT22;10952;50.836;4.348;2023-04-01T03:36:09;10.10;99.90
21582;DHT22;10952;50.836;4.348;2023-04-01T03:38:36;10.10;99.90
21582;DHT22;10952;50.836;4.348;2023-04-01T03:41:03;10.00;99.90
21582;DHT22;10952;50.836;4.348;2023-04-01T03:43:28;10.00;99.90
21582;DHT22;10952;50.836;4.348;2023-04-01T03:45:54;10.00;99.90
21582;DHT22;10952;50.836;4.348;2023-04-01T03:48:20;10.00;99.90
21582;DHT22;10952;50.836;4.348;2023-04-01T03:50:47;10.00;99.90
21582;DHT22;10952;50.836;4.348;2023-04-01T03:53:13;10.00;99.90
21582;DHT22;10952;50.836;4.348;2023-04-01T03:55:38;10.00;99.90
21582;DHT22;10952;50.836;4.348;2023-04-01T03:58:06;10.10;99.90
21582;DHT22;10952;50.836;4.348;2023-04-01T04:00:32;10.10;99.90
21582;DHT22;10952;50.836;4.348;2023-04-01T04:02:58;10.10;99.90
21582;DHT22;10952;50.836;4.348;2023-04-01T04:05:25;10.00;99.90
21582;DHT22;10952;50.836;4.348;2023-04-01T04:07:52;10.00;99.90
21582;DHT22;10952;50.836;4.348;2023-04-01T04:10:17;10.00;99.90
21582;DHT22;10952;50.836;4.348;2023-04-01T04:12:43;10.10;99.90
21582;DHT22;10952;50.836;4.348;2023-04-01T04:15:09;10.20;99.90
21582;DHT22;10952;50.836;4.348;2023-04-01T04:17:35;10.20;99.90
21582;DHT22;10952;50.836;4.348;2023-04-01T04:20:01;10.10;99.90
21582;DHT22;10952;50.836;4.348;2023-04-01T04:22:27;10.10;99.90
21582;DHT22;10952;50.836;4.348;2023-04-01T04:24:53;10.20;99.90
21582;DHT22;10952;50.836;4.348;2023-04-01T04:27:18;10.10;99.90
21582;DHT22;10952;50.836;4.348;2023-04-01T04:29:44;10.10;99.90
21582;DHT22;10952;50.836;4.348;2023-04-01T04:32:10;10.10;99.90
21582;DHT22;10952;50.836;4.348;2023-04-01T04:34:35;10.10;99.90
21582;DHT22;10952;50.836;4.348;2023-04-01T04:37:01;10.00;99.90
21582;DHT22;10952;50.836;4.348;2023-04-01T04:39:27;10.00;99.90
21582;DHT22;10952;50.836;4.348;2023-04-01T04:41:53;10.00;99.90
21582;DHT22;10952;50.836;4.348;2023-04-01T04:44:18;10.00;99.90
21582;DHT22;10952;50.836;4.348;2023-04-01T04:46:44;10.00;99.90
21582;DHT22;10952;50.836;4.348;2023-04-01T04:49:13;10.00;99.90
21582;DHT22;10952;50.836;4.348;2023-04-01T04:51:39;10.10;99.90
21582;DHT22;10952;50.836;4.348;2023-04-01T04:54:17;9.90;99.90
21582;DHT22;10952;50.836;4.348;2023-04-01T04:56:52;10.10;99.90
21582;DHT22;10952;50.836;4.348;2023-04-01T04:59:21;10.10;99.90
21582;DHT22;10952;50.836;4.348;2023-04-01T05:01:48;10.10;99.90
21582;DHT22;10952;50.836;4.348;2023-04-01T05:04:16;10.00;99.90
21582;DHT22;10952;50.836;4.348;2023-04-01T05:06:43;9.90;99.90
21582;DHT22;10952;50.836;4.348;2023-04-01T05:09:12;10.00;99.90
21582;DHT22;10952;50.836;4.348;2023-04-01T05:11:41;10.00;99.90
21582;DHT22;10952;50.836;4.348;2023-04-01T05:17:29;10.00;99.90
21582;DHT22;10952;50.836;4.348;2023-04-01T05:19:58;10.10;99.90
21582;DHT22;10952;50.836;4.348;2023-04-01T05:22:24;10.10;99.90
21582;DHT22;10952;50.836;4.348;2023-04-01T05:24:50;10.10;99.90
21582;DHT22;10952;50.836;4.348;2023-04-01T05:27:15;10.10;99.90
21582;DHT22;10952;50.836;4.348;2023-04-01T05:30:00;10.10;99.90
21582;DHT22;10952;50.836;4.348;2023-04-01T05:33:02;10.10;99.90
21582;DHT22;10952;50.836;4.348;2023-04-01T05:38:50;10.10;99.90
21582;DHT22;10952;50.836;4.348;2023-04-01T05:41:20;10.20;99.90
21582;DHT22;10952;50.836;4.348;2023-04-01T05:43:46;10.10;99.90
21582;DHT22;10952;50.836;4.348;2023-04-01T05:46:15;10.20;99.90
21582;DHT22;10952;50.836;4.348;2023-04-01T05:48:44;10.10;99.90
21582;DHT22;10952;50.836;4.348;2023-04-01T05:51:15;10.10;99.90
21582;DHT22;10952;50.836;4.348;2023-04-01T05:53:44;10.00;99.90
21582;DHT22;10952;50.836;4.348;2023-04-01T05:56:13;10.00;99.90
21582;DHT22;10952;50.836;4.348;2023-04-01T05:58:39;10.00;99.90
21582;DHT22;10952;50.836;4.348;2023-04-01T06:01:10;10.00;99.90
21582;DHT22;10952;50.836;4.348;2023-04-01T06:03:39;10.10;99.90
21582;DHT22;10952;50.836;4.348;2023-04-01T06:06:29;9.90;99.90
21582;DHT22;10952;50.836;4.348;2023-04-01T06:49:48;10.00;99.90
21582;DHT22;10952;50.836;4.348;2023-04-01T06:52:45;10.20;99.90
21582;DHT22;10952;50.836;4.348;2023-04-01T06:55:32;10.10;99.90
21582;DHT22;10952;50.836;4.348;2023-04-01T06:58:05;10.10;99.90
21582;DHT22;10952;50.836;4.348;2023-04-01T07:00:36;10.00;99.90
21582;DHT22;10952;50.836;4.348;2023-04-01T07:05:53;10.10;99.90
21582;DHT22;10952;50.836;4.348;2023-04-01T07:08:44;10.10;99.90
21582;DHT22;10952;50.836;4.348;2023-04-01T07:11:25;10.10;99.90
21582;DHT22;10952;50.836;4.348;2023-04-01T07:13:54;10.10;99.90
21582;DHT22;10952;50.836;4.348;2023-04-01T07:16:46;10.10;99.90
21582;DHT22;10952;50.836;4.348;2023-04-01T07:22:42;10.00;99.90
21582;DHT22;10952;50.836;4.348;2023-04-01T07:28:12;10.00;99.90
21582;DHT22;10952;50.836;4.348;2023-04-01T07:39:14;10.00;99.90
21582;DHT22;10952;50.836;4.348;2023-04-01T07:42:15;10.20;99.90
21582;DHT22;10952;50.836;4.348;2023-04-01T07:44:54;10.20;99.90
21582;DHT22;10952;50.836;4.348;2023-04-01T07:50:38;10.10;99.90
21582;DHT22;10952;50.836;4.348;2023-04-01T07:53:28;10.10;99.90
21582;DHT22;10952;50.836;4.348;2023-04-01T08:05:10;10.10;99.90
21582;DHT22;10952;50.836;4.348;2023-04-01T08:13:52;10.20;99.90
21582;DHT22;10952;50.836;4.348;2023-04-01T08:29:06;10.50;99.90
21582;DHT22;10952;50.836;4.348;2023-04-01T08:32:00;10.60;99.90
21582;DHT22;10952;50.836;4.348;2023-04-01T08:34:43;10.50;99.90
21582;DHT22;10952;50.836;4.348;2023-04-01T08:37:25;10.60;99.90
21582;DHT22;10952;50.836;4.348;2023-04-01T08:40:39;10.70;99.90
21582;DHT22;10952;50.836;4.348;2023-04-01T08:53:03;10.50;99.90
21582;DHT22;10952;50.836;4.348;2023-04-01T08:55:47;10.40;99.90
21582;DHT22;10952;50.836;4.348;2023-04-01T09:40:24;10.50;99.90
21582;DHT22;10952;50.836;4.348;2023-04-01T09:45:58;10.60;99.90
21582;DHT22;10952;50.836;4.348;2023-04-01T09:57:39;11.00;99.90
21582;DHT22;10952;50.836;4.348;2023-04-01T10:03:38;11.00;99.90
21582;DHT22;10952;50.836;4.348;2023-04-01T10:12:29;11.20;99.90
21582;DHT22;10952;50.836;4.348;2023-04-01T10:21:16;11.20;99.90
21582;DHT22;10952;50.836;4.348;2023-04-01T10:33:14;11.30;99.90
21582;DHT22;10952;50.836;4.348;2023-04-01T10:49:48;11.40;99.90
21582;DHT22;10952;50.836;4.348;2023-04-01T11:17:43;11.60;99.90
21582;DHT22;10952;50.836;4.348;2023-04-01T11:26:38;11.60;99.90
21582;DHT22;10952;50.836;4.348;2023-04-01T11:36:35;11.10;99.90
21582;DHT22;10952;50.836;4.348;2023-04-01T11:45:32;10.90;99.90
21582;DHT22;10952;50.836;4.348;2023-04-01T11:53:59;11.00;99.90
21582;DHT22;10952;50.836;4.348;2023-04-01T11:56:43;11.10;99.90
21582;DHT22;10952;50.836;4.348;2023-04-01T12:05:18;11.10;99.90
21582;DHT22;10952;50.836;4.348;2023-04-01T12:08:10;11.10;99.90
21582;DHT22;10952;50.836;4.348;2023-04-01T12:19:14;11.20;99.90
21582;DHT22;10952;50.836;4.348;2023-04-01T12:25:00;11.40;99.90
21582;DHT22;10952;50.836;4.348;2023-04-01T12:27:39;11.50;99.90
21582;DHT22;10952;50.836;4.348;2023-04-01T12:39:15;11.30;99.90
21582;DHT22;10952;50.836;4.348;2023-04-01T12:45:02;11.20;99.90
21582;DHT22;10952;50.836;4.348;2023-04-01T12:48:26;11.30;99.90
21582;DHT22;10952;50.836;4.348;2023-04-01T12:57:09;11.10;99.90
21582;DHT22;10952;50.836;4.348;2023-04-01T12:59:45;10.90;99.90
21582;DHT22;10952;50.836;4.348;2023-04-01T13:02:37;10.80;99.90
21582;DHT22;10952;50.836;4.348;2023-04-01T13:11:14;11.00;99.90
21582;DHT22;10952;50.836;4.348;2023-04-01T13:14:25;10.90;99.90
21582;DHT22;10952;50.836;4.348;2023-04-01T13:17:22;10.70;99.90
21582;DHT22;10952;50.836;4.348;2023-04-01T13:23:05;10.90;99.90
21582;DHT22;10952;50.836;4.348;2023-04-01T13:26:02;10.80;99.90
21582;DHT22;10952;50.836;4.348;2023-04-01T13:28:53;10.80;99.90
21582;DHT22;10952;50.836;4.348;2023-04-01T13:31:38;11.00;99.90
21582;DHT22;10952;50.836;4.348;2023-04-01T13:43:34;10.90;99.90
21582;DHT22;10952;50.836;4.348;2023-04-01T14:22:53;11.20;99.90
21582;DHT22;10952;50.836;4.348;2023-04-01T14:25:41;11.20;99.90
21582;DHT22;10952;50.836;4.348;2023-04-01T14:28:25;11.30;99.90
21582;DHT22;10952;50.836;4.348;2023-04-01T14:31:17;11.40;99.90
21582;DHT22;10952;50.836;4.348;2023-04-01T14:43:14;11.10;99.90
21582;DHT22;10952;50.836;4.348;2023-04-01T14:46:19;11.20;99.90
21582;DHT22;10952;50.836;4.348;2023-04-01T14:49:00;11.10;99.90
21582;DHT22;10952;50.836;4.348;2023-04-01T14:51:36;11.30;99.90
21582;DHT22;10952;50.836;4.348;2023-04-01T14:54:38;11.00;99.90
21582;DHT22;10952;50.836;4.348;2023-04-01T14:57:27;10.90;99.90
21582;DHT22;10952;50.836;4.348;2023-04-01T15:00:00;10.80;99.90
21582;DHT22;10952;50.836;4.348;2023-04-01T15:02:59;10.70;99.90
21582;DHT22;10952;50.836;4.348;2023-04-01T15:05:43;10.80;99.90
21582;DHT22;10952;50.836;4.348;2023-04-01T15:14:21;11.10;99.90
21582;DHT22;10952;50.836;4.348;2023-04-01T15:20:47;10.90;99.90
21582;DHT22;10952;50.836;4.348;2023-04-01T15:23:46;10.70;99.90
21582;DHT22;10952;50.836;4.348;2023-04-01T15:31:59;10.60;99.90
21582;DHT22;10952;50.836;4.348;2023-04-01T15:40:47;10.50;99.90
21582;DHT22;10952;50.836;4.348;2023-04-01T15:49:03;10.50;99.90
21582;DHT22;10952;50.836;4.348;2023-04-01T15:51:53;10.60;99.90
21582;DHT22;10952;50.836;4.348;2023-04-01T16:00:28;10.60;99.90
21582;DHT22;10952;50.836;4.348;2023-04-01T16:03:18;10.50;99.90
21582;DHT22;10952;50.836;4.348;2023-04-01T16:08:59;10.50;99.90
21582;DHT22;10952;50.836;4.348;2023-04-01T16:14:22;10.50;99.90
21582;DHT22;10952;50.836;4.348;2023-04-01T16:21:06;10.50;99.90
21582;DHT22;10952;50.836;4.348;2023-04-01T16:37:21;10.40;99.90
21582;DHT22;10952;50.836;4.348;2023-04-01T16:40:11;10.40;99.90
21582;DHT22;10952;50.836;4.348;2023-04-01T16:42:55;10.40;99.90
21582;DHT22;10952;50.836;4.348;2023-04-01T16:51:19;10.40;99.90
21582;DHT22;10952;50.836;4.348;2023-04-01T16:54:06;10.30;99.90
21582;DHT22;10952;50.836;4.348;2023-04-01T16:56:56;10.30;99.90
21582;DHT22;10952;50.836;4.348;2023-04-01T16:59:38;10.40;99.90
21582;DHT22;10952;50.836;4.348;2023-04-01T17:02:10;10.40;99.90
21582;DHT22;10952;50.836;4.348;2023-04-01T17:05:08;10.30;99.90
21582;DHT22;10952;50.836;4.348;2023-04-01T17:08:08;10.20;99.90
21582;DHT22;10952;50.836;4.348;2023-04-01T17:13:53;10.10;99.90
21582;DHT22;10952;50.836;4.348;2023-04-01T17:30:55;10.20;99.90
21582;DHT22;10952;50.836;4.348;2023-04-01T17:33:49;10.30;99.90
21582;DHT22;10952;50.836;4.348;2023-04-01T17:36:56;10.30;99.90
21582;DHT22;10952;50.836;4.348;2023-04-01T17:42:07;10.10;99.90
21582;DHT22;10952;50.836;4.348;2023-04-01T17:47:37;10.20;99.90
21582;DHT22;10952;50.836;4.348;2023-04-01T17:50:29;10.20;99.90
21582;DHT22;10952;50.836;4.348;2023-04-01T17:53:15;10.30;99.90
21582;DHT22;10952;50.836;4.348;2023-04-01T17:58:39;10.30;99.90
21582;DHT22;10952;50.836;4.348;2023-04-01T18:13:05;10.20;99.90
21582;DHT22;10952;50.836;4.348;2023-04-01T18:15:55;10.10;99.90
21582;DHT22;10952;50.836;4.348;2023-04-01T18:27:18;9.90;99.90
21582;DHT22;10952;50.836;4.348;2023-04-01T18:29:54;9.90;99.90
21582;DHT22;10952;50.836;4.348;2023-04-01T18:32:43;9.90;99.90
21582;DHT22;10952;50.836;4.348;2023-04-01T18:38:37;9.90;99.90
21582;DHT22;10952;50.836;4.348;2023-04-01T18:52:23;9.80;99.90
21582;DHT22;10952;50.836;4.348;2023-04-01T18:57:39;10.00;99.90
21582;DHT22;10952;50.836;4.348;2023-04-01T19:02:58;9.90;99.90
21582;DHT22;10952;50.836;4.348;2023-04-01T19:05:33;9.90;99.90
21582;DHT22;10952;50.836;4.348;2023-04-01T19:08:38;9.80;99.90
21582;DHT22;10952;50.836;4.348;2023-04-01T19:19:38;9.80;99.90
21582;DHT22;10952;50.836;4.348;2023-04-01T19:22:38;9.80;99.90
21582;DHT22;10952;50.836;4.348;2023-04-01T19:25:28;9.80;99.90
21582;DHT22;10952;50.836;4.348;2023-04-01T19:37:16;9.70;99.90
21582;DHT22;10952;50.836;4.348;2023-04-01T19:42:54;9.70;99.90
21582;DHT22;10952;50.836;4.348;2023-04-01T19:45:38;9.60;99.90
21582;DHT22;10952;50.836;4.348;2023-04-01T19:48:48;9.50;99.90
21582;DHT22;10952;50.836;4.348;2023-04-01T19:57:46;9.50;99.90
21582;DHT22;10952;50.836;4.348;2023-04-01T20:00:34;9.70;99.90
21582;DHT22;10952;50.836;4.348;2023-04-01T20:05:54;9.70;99.90
21582;DHT22;10952;50.836;4.348;2023-04-01T20:08:41;9.60;99.90
21582;DHT22;10952;50.836;4.348;2023-04-01T20:11:35;9.60;99.90
21582;DHT22;10952;50.836;4.348;2023-04-01T20:14:34;9.70;99.90
21582;DHT22;10952;50.836;4.348;2023-04-01T20:25:46;9.60;99.90
21582;DHT22;10952;50.836;4.348;2023-04-01T20:28:36;9.50;99.90
21582;DHT22;10952;50.836;4.348;2023-04-01T20:44:19;9.60;99.90
21582;DHT22;10952;50.836;4.348;2023-04-01T20:52:10;9.80;99.90
21582;DHT22;10952;50.836;4.348;2023-04-01T20:55:28;9.60;99.90
21582;DHT22;10952;50.836;4.348;2023-04-01T21:04:30;9.60;99.90
21582;DHT22;10952;50.836;4.348;2023-04-01T21:10:41;9.70;99.90
21582;DHT22;10952;50.836;4.348;2023-04-01T21:13:24;9.80;99.90
21582;DHT22;10952;50.836;4.348;2023-04-01T21:24:58;9.80;99.90
21582;DHT22;10952;50.836;4.348;2023-04-01T21:36:27;10.00;99.90
21582;DHT22;10952;50.836;4.348;2023-04-01T21:41:53;10.10;99.90
21582;DHT22;10952;50.836;4.348;2023-04-01T21:44:41;10.00;99.90
21582;DHT22;10952;50.836;4.348;2023-04-01T21:59:12;10.00;99.90
21582;DHT22;10952;50.836;4.348;2023-04-01T22:02:02;10.10;99.90
21582;DHT22;10952;50.836;4.348;2023-04-01T22:10:54;10.30;99.90
21582;DHT22;10952;50.836;4.348;2023-04-01T22:16:20;10.40;99.90
21582;DHT22;10952;50.836;4.348;2023-04-01T22:25:07;10.30;99.90
21582;DHT22;10952;50.836;4.348;2023-04-01T22:28:19;10.40;99.90
21582;DHT22;10952;50.836;4.348;2023-04-01T22:31:08;10.40;99.90
21582;DHT22;10952;50.836;4.348;2023-04-01T22:36:34;10.40;99.90
21582;DHT22;10952;50.836;4.348;2023-04-01T22:39:25;10.30;99.90
21582;DHT22;10952;50.836;4.348;2023-04-01T22:50:24;10.20;99.90
21582;DHT22;10952;50.836;4.348;2023-04-01T22:55:33;10.30;99.90
21582;DHT22;10952;50.836;4.348;2023-04-01T22:58:15;10.30;99.90
21582;DHT22;10952;50.836;4.348;2023-04-01T23:00:59;10.30;99.90
21582;DHT22;10952;50.836;4.348;2023-04-01T23:03:35;10.30;99.90
21582;DHT22;10952;50.836;4.348;2023-04-01T23:06:05;10.40;99.90
21582;DHT22;10952;50.836;4.348;2023-04-01T23:11:16;10.40;99.90
21582;DHT22;10952;50.836;4.348;2023-04-01T23:18:25;10.40;99.90
21582;DHT22;10952;50.836;4.348;2023-04-01T23:20:44;10.40;99.90
21582;DHT22;10952;50.836;4.348;2023-04-01T23:23:29;10.30;99.90
21582;DHT22;10952;50.836;4.348;2023-04-01T23:26:25;10.20;99.90
21582;DHT22;10952;50.836;4.348;2023-04-01T23:32:24;10.20;99.90
21582;DHT22;10952;50.836;4.348;2023-04-01T23:34:59;10.10;99.90
21582;DHT22;10952;50.836;4.348;2023-04-01T23:37:26;10.10;99.90
21582;DHT22;10952;50.836;4.348;2023-04-01T23:39:58;10.00;99.90
21582;DHT22;10952;50.836;4.348;2023-04-01T23:42:38;10.10;99.90
21582;DHT22;10952;50.836;4.348;2023-04-01T23:45:13;10.10;99.90
21582;DHT22;10952;50.836;4.348;2023-04-01T23:47:45;10.00;99.90
21582;DHT22;10952;50.836;4.348;2023-04-01T23:50:24;10.20;99.90
21582;DHT22;10952;50.836;4.348;2023-04-01T23:53:29;10.10;99.90
21582;DHT22;10952;50.836;4.348;2023-04-01T23:55:56;10.20;99.90
21582;DHT22;10952;50.836;4.348;2023-04-01T23:58:38;10.30;99.90
